createdAt,value
2022-09-02T04:00:32.981Z,997.48
2022-09-02T04:05:32.938Z,997.44
2022-09-02T04:10:32.863Z,997.38
2022-09-02T04:15:32.836Z,997.32
2022-09-02T04:20:32.770Z,997.31
2022-09-02T04:25:32.714Z,997.30
2022-09-02T04:30:32.664Z,997.28
2022-09-02T04:35:32.614Z,997.38
2022-09-02T04:40:32.594Z,997.32
2022-09-02T04:45:32.505Z,997.28
2022-09-02T04:50:32.445Z,997.34
2022-09-02T04:55:32.394Z,997.38
2022-09-02T05:00:32.342Z,997.25
2022-09-02T05:05:32.288Z,997.27
2022-09-02T05:10:32.233Z,997.35
2022-09-02T05:15:32.241Z,997.40
2022-09-02T05:20:32.126Z,997.36
2022-09-02T05:25:32.071Z,997.39
2022-09-02T05:30:32.025Z,997.36
2022-09-02T05:35:31.955Z,997.33
2022-09-02T05:40:31.969Z,997.28
2022-09-02T05:45:31.847Z,997.37
2022-09-02T05:50:32.238Z,997.44
2022-09-02T05:55:31.738Z,997.40
2022-09-02T06:00:31.702Z,997.38
2022-09-02T06:05:31.646Z,997.39
2022-09-02T06:10:31.573Z,997.40
2022-09-02T06:15:31.644Z,997.36
2022-09-02T06:20:31.466Z,997.35
2022-09-02T06:25:31.424Z,997.43
2022-09-02T06:30:31.357Z,997.34
2022-09-02T06:35:31.322Z,997.36
2022-09-02T06:40:31.259Z,997.46
2022-09-02T06:45:31.214Z,997.51
2022-09-02T06:50:31.140Z,997.47
2022-09-02T06:55:31.100Z,997.52
2022-09-02T07:00:31.034Z,997.43
2022-09-02T07:05:30.992Z,997.36
2022-09-02T07:10:30.944Z,997.48
2022-09-02T07:15:30.890Z,997.55
2022-09-02T07:20:30.945Z,997.38
2022-09-02T07:25:30.775Z,997.35
2022-09-02T07:30:30.799Z,997.39
2022-09-02T07:35:30.658Z,997.30
2022-09-02T07:40:30.653Z,997.26
2022-09-02T07:45:30.563Z,997.37
2022-09-02T07:50:30.508Z,997.21
2022-09-02T07:55:30.453Z,997.21
2022-09-02T08:00:30.400Z,997.25
2022-09-02T08:05:30.353Z,997.23
2022-09-02T08:10:30.284Z,997.24
2022-09-02T08:15:30.249Z,997.17
2022-09-02T08:20:30.185Z,997.33
2022-09-02T08:25:30.137Z,997.19
2022-09-02T08:30:30.081Z,997.17
2022-09-02T08:35:30.029Z,997.34
2022-09-02T08:40:29.997Z,997.10
2022-09-02T08:45:29.989Z,997.29
2022-09-02T08:50:29.866Z,997.22
2022-09-02T08:55:29.813Z,997.08
2022-09-02T09:00:29.757Z,997.17
2022-09-02T09:05:29.852Z,997.09
2022-09-02T09:10:29.662Z,997.12
2022-09-02T09:15:29.613Z,997.12
2022-09-02T09:20:29.549Z,997.01
2022-09-02T09:25:29.493Z,996.92
2022-09-02T09:30:29.443Z,996.77
2022-09-02T09:35:29.392Z,996.75
2022-09-02T09:40:29.387Z,996.76
2022-09-02T09:45:29.388Z,996.60
2022-09-02T09:50:29.236Z,996.55
2022-09-02T09:55:29.184Z,996.56
2022-09-02T10:00:29.131Z,996.60
2022-09-02T10:05:29.076Z,996.53
2022-09-02T10:10:29.038Z,996.52
2022-09-02T10:15:36.012Z,996.48
2022-09-02T10:20:28.918Z,996.45
2022-09-02T10:25:28.860Z,996.41
2022-09-02T10:30:28.817Z,996.48
2022-09-02T10:35:28.764Z,996.28
2022-09-02T10:40:28.865Z,996.28
2022-09-02T10:45:28.673Z,996.28
2022-09-02T10:50:28.674Z,996.26
2022-09-02T10:55:28.538Z,996.23
2022-09-02T11:00:28.531Z,996.25
2022-09-02T11:05:28.444Z,996.20
2022-09-02T11:10:28.378Z,996.27
2022-09-02T11:15:28.325Z,996.17
2022-09-02T11:20:28.270Z,996.05
2022-09-02T11:25:28.220Z,995.98
2022-09-02T11:30:28.169Z,996.04
2022-09-02T11:35:28.124Z,995.98
2022-09-02T11:40:34.810Z,995.97
2022-09-02T11:45:29.090Z,995.93
2022-09-02T11:50:27.953Z,995.87
2022-09-02T11:55:28.901Z,995.82
2022-09-02T12:00:27.849Z,995.73
2022-09-02T12:05:27.930Z,995.81
2022-09-02T12:10:27.747Z,995.78
2022-09-02T12:15:27.689Z,995.71
2022-09-02T12:20:27.639Z,995.60
2022-09-02T12:25:27.595Z,995.62
2022-09-02T12:30:27.538Z,995.47
2022-09-02T12:35:27.722Z,995.60
2022-09-02T12:40:29.214Z,995.56
2022-09-02T12:45:29.090Z,995.40
2022-09-02T12:50:27.322Z,995.38
2022-09-02T12:55:27.273Z,995.36
2022-09-02T13:00:27.234Z,995.33
2022-09-02T13:05:27.164Z,995.18
2022-09-02T13:10:27.115Z,995.18
2022-09-02T13:15:27.069Z,995.21
2022-09-02T13:20:27.010Z,995.13
2022-09-02T13:25:29.141Z,995.17
2022-09-02T13:30:26.944Z,995.05
2022-09-02T13:35:26.850Z,995.03
2022-09-02T13:40:26.796Z,995.01
2022-09-02T13:45:26.741Z,994.99
2022-09-02T13:50:26.702Z,994.84
2022-09-02T13:55:26.631Z,994.81
2022-09-02T14:00:26.677Z,994.70
2022-09-02T14:05:26.540Z,994.80
2022-09-02T14:10:26.487Z,994.74
2022-09-02T14:15:26.462Z,994.79
2022-09-02T14:20:26.394Z,994.50
2022-09-02T14:25:27.601Z,994.51
2022-09-02T14:30:26.282Z,994.50
2022-09-02T14:35:26.209Z,994.42
2022-09-02T14:40:26.164Z,994.36
2022-09-02T14:45:26.113Z,994.30
2022-09-02T14:50:26.055Z,994.37
2022-09-02T14:55:26.004Z,994.33
2022-09-02T15:00:25.949Z,994.30
2022-09-02T15:05:25.954Z,994.24
2022-09-02T15:10:25.842Z,994.12
2022-09-02T15:15:25.808Z,994.27
2022-09-02T15:20:25.734Z,994.10
2022-09-02T15:25:25.685Z,994.13
2022-09-02T15:30:25.630Z,994.05
2022-09-02T15:35:25.579Z,993.95
2022-09-02T15:40:25.531Z,993.90
2022-09-02T15:45:25.473Z,993.91
2022-09-02T15:50:25.424Z,993.96
2022-09-02T15:55:29.531Z,993.92
2022-09-02T16:00:27.784Z,994.00
2022-09-02T16:05:25.258Z,993.80
2022-09-02T16:10:25.204Z,993.82
2022-09-02T16:15:32.237Z,993.78
2022-09-02T16:20:25.096Z,993.79
2022-09-02T16:25:25.045Z,993.83
2022-09-02T16:30:24.994Z,993.78
2022-09-02T16:35:24.964Z,993.72
2022-09-02T16:40:24.875Z,993.72
2022-09-02T16:45:24.841Z,993.62
2022-09-02T16:50:24.782Z,993.56
2022-09-02T16:55:24.732Z,993.52
2022-09-02T17:00:24.677Z,993.42
2022-09-02T17:05:24.622Z,993.40
2022-09-02T17:10:24.568Z,993.43
2022-09-02T17:15:24.517Z,993.59
2022-09-02T17:20:24.922Z,993.49
2022-09-02T17:25:24.395Z,993.44
2022-09-02T17:30:24.413Z,993.53
2022-09-02T17:35:24.295Z,993.53
2022-09-02T17:40:24.249Z,993.57
2022-09-02T17:45:24.192Z,993.64
2022-09-02T17:50:24.135Z,993.60
2022-09-02T17:55:24.082Z,993.58
2022-09-02T18:00:24.032Z,993.58
2022-09-02T18:05:23.965Z,993.46
2022-09-02T18:10:23.921Z,993.50
2022-09-02T18:15:23.869Z,993.50
2022-09-02T18:20:23.812Z,993.50
2022-09-02T18:25:23.762Z,993.49
2022-09-02T18:30:23.761Z,993.43
2022-09-02T18:35:23.653Z,993.41
2022-09-02T18:40:23.601Z,993.46
2022-09-02T18:45:23.547Z,993.48
2022-09-02T18:50:44.945Z,993.53
2022-09-02T18:55:24.436Z,993.57
2022-09-02T19:00:23.386Z,993.56
2022-09-02T19:05:23.334Z,993.63
2022-09-02T19:10:23.275Z,993.60
2022-09-02T19:15:23.224Z,993.64
2022-09-02T19:20:23.165Z,993.73
2022-09-02T19:25:23.108Z,993.73
2022-09-02T19:30:23.051Z,993.67
2022-09-02T19:35:22.998Z,993.68
2022-09-02T19:40:22.932Z,993.69
2022-09-02T19:45:22.941Z,993.65
2022-09-02T19:50:22.823Z,993.68
2022-09-02T19:55:22.779Z,993.68
2022-09-02T20:00:22.729Z,993.62
2022-09-02T20:05:22.670Z,993.67
2022-09-02T20:10:27.647Z,993.56
2022-09-02T20:15:23.556Z,993.68
2022-09-02T20:20:22.545Z,993.64
2022-09-02T20:25:22.437Z,993.61
2022-09-02T20:30:22.412Z,993.55
2022-09-02T20:35:22.341Z,993.59
2022-09-02T20:40:22.284Z,993.55
2022-09-02T20:45:22.225Z,993.54
2022-09-02T20:50:22.292Z,993.51
2022-09-02T20:55:22.126Z,993.50
2022-09-02T21:00:22.073Z,993.50
2022-09-02T21:05:22.736Z,993.48
2022-09-02T21:10:21.961Z,993.45
2022-09-02T21:15:21.905Z,993.42
2022-09-02T21:20:21.850Z,993.39
2022-09-02T21:25:21.799Z,993.41
2022-09-02T21:30:21.743Z,993.40
2022-09-02T21:35:21.691Z,993.42
2022-09-02T21:40:21.756Z,993.37
2022-09-02T21:45:21.586Z,993.32
2022-09-02T21:50:22.425Z,993.31
2022-09-02T21:55:21.476Z,993.31
2022-09-02T22:00:21.429Z,993.29
2022-09-02T22:05:21.369Z,993.28
2022-09-02T22:10:21.319Z,993.27
2022-09-02T22:15:21.264Z,993.27
2022-09-02T22:20:21.206Z,993.22
2022-09-02T22:25:21.160Z,993.19
2022-09-02T22:30:21.102Z,993.21
2022-09-02T22:35:21.159Z,993.14
2022-09-02T22:40:20.994Z,993.18
2022-09-02T22:45:20.937Z,993.20
2022-09-02T22:50:20.891Z,993.14
2022-09-02T22:55:20.832Z,993.17
2022-09-02T23:00:20.782Z,993.13
2022-09-02T23:05:20.726Z,993.20
2022-09-02T23:10:20.674Z,993.04
2022-09-02T23:15:20.620Z,993.11
2022-09-02T23:20:20.565Z,993.12
2022-09-02T23:25:20.511Z,993.11
